KOLMKGRF

Guest
Details From KOLM - OLYMPIA
To KGRF - GRAY AAF
Flight Number -
Tags generated
Created
Modified
Stats Distance 15 nm / 27 km
Max Altitude 100 ft / 30 m
Waypoints 3
Social Downloads 3
Likes 0
Share VATSIM

Download

Looking for another format? Having issues loading an existing format? Contact us
Advertisement - Login to hide

Notes

Basic altitude profile: - Ascent Rate: 2000ft/min - Ascent Speed: 130kts - Cruise Altitude: 35000ft - Cruise Speed: 160kts - Descent Rate: 1000ft/min - Descent Speed: 120kts

Route

KOLM OLM KGRF

ID Type Via Altitude Latitude Longitude Leg Dist Tot Dist Heading (true) Name
O KOLM APT - 0 ft / 0 m 46.96931˚ -122.90248˚ - 0 nm - OLYMPIA
OLM VOR - 100 ft / 30 m 46.97164˚ -122.90183˚ 0 nm 0 nm 11° / 11° OLYMPIA VORTAC
O KGRF APT - 0 ft / 0 m 47.07922˚ -122.58078˚ 14 nm 14 nm 64° / 64° GRAY AAF

Altitude Profile

Advertisement - Login to hide

KOLM

Details ICAO KOLM (OLM)
Name OLYMPIA
Region United States
Timezone America/Los_Angeles (UTC-8.0)
Stats Elevation 209 ft / 64 m (AMSL)
Location 46.969312° -122.902479°
Runways 2
Magnetic Variation 15.674° E

METAR

KOLM 161454Z AUTO 00000KT 8SM CLR 01/01 A3030 RMK AO2 SLP261 T00060006 50000

Decode

TAF

TAF KOLM 161120Z 1612/1712 00000KT P6SM FEW030 BKN150 TEMPO 1612/1616 2SM BR SCT002 BKN030 FM170600 20005KT P6SM -RA SCT030 BKN040

Decode

Departure Runways

ID Width Length Bearing (true) Bearing (mag) Surface Threshold Offset Overrun Length
08 151 ft / 46 m 4,147 ft / 1,264 m 103.71° 88.04° Asphalt 0 ft / 0 m 0 ft / 0 m
17 151 ft / 46 m 5,503 ft / 1,677 m 191.27° 175.60° Asphalt 0 ft / 0 m 600 ft / 183 m
26 151 ft / 46 m 4,147 ft / 1,264 m 283.72° 268.05° Asphalt 0 ft / 0 m 0 ft / 0 m
35 151 ft / 46 m 5,503 ft / 1,677 m 11.27° 355.60° Asphalt 0 ft / 0 m 0 ft / 0 m

KGRF

Details ICAO KGRF (GRF)
Name GRAY AAF
Region United States
Timezone America/Los_Angeles (UTC-8.0)
Stats Elevation 302 ft / 92 m (AMSL)
Location 47.079218° -122.580783°
Runways 1
Magnetic Variation 15.644° E

METAR

KGRF 161458Z 13004KT 10SM BKN017 OVC120 01/01 A3028 RMK AO2A SLP260 T00140014 58001 $

Decode

TAF

TAF KGRF 161303Z 1613/1719 18004KT 9999 BKN130 QNH3028INS BECMG 1616/1617 18006KT 9999 FEW020 BKN060 OVC080 620609 QNH3026INS BECMG 1621/1622 20009KT 9000 -RA BKN015 OVC060 620359 QNH3025INS BECMG 1623/1624 20008KT 9000 -RA BKN007 OVC015 620359 QNH3020INS BECMG 1707/1708 18010G15KT 9000 -RA BKN010 OVC015 620509 QNH3007INS TX05/1621Z TN00/1613Z

Decode

Destination Runways

ID Width Length Bearing (true) Bearing (mag) Surface Threshold Offset Overrun Length
15 150 ft / 46 m 6,126 ft / 1,867 m 167.11° 151.47° Asphalt 0 ft / 0 m 0 ft / 0 m
33 150 ft / 46 m 6,126 ft / 1,867 m 347.11° 331.47° Asphalt 0 ft / 0 m 0 ft / 0 m

Approach Navaids

Runway Type Ident Frequency Range Bearing (true) Bearing (mag) Slope Elevation
15 Localiser IGRF 108.30 MHz 18 nm / 33 km 167.09° 151.44° - 302 ft / 92 m (AMSL)
15 Glidescope IGRF 108.30 MHz 10 nm / 19 km 167.11° 151.46° 3.00° 296 ft / 90 m (AMSL)